Time;durP1;ratioP1;P1;durP2;ratioP2;P2;SDS_P1;SDS_P2;PMS_P1;PMS_P2;Temp;Humidity;BMP_temperature;BMP_pressure;BME280_temperature;BME280_humidity;BME280_pressure;Samples;Min_cycle;Max_cycle;Signal;HPM_P1;HPM_P2
2022/01/14 00:01:54;;;;;;;25.03;13.27;;;;;;;-142.91;100.00;56616.03;5061094;28;20230;-66
2022/01/14 00:04:22;;;;;;;34.20;15.37;;;;;;;-142.91;100.00;56616.03;5061257;28;20686;-66
2022/01/14 00:06:49;;;;;;;30.87;14.93;;;;;;;-142.91;100.00;56616.03;5061389;28;20919;-65
2022/01/14 00:09:17;;;;;;;23.60;13.60;;;;;;;-142.91;100.00;56616.03;5061606;28;20319;-64
2022/01/14 00:11:48;;;;;;;28.47;13.63;;;;;;;-142.91;100.00;56616.03;5061645;28;20653;-64
2022/01/14 00:14:22;;;;;;;19.90;11.90;;;;;;;-142.91;100.00;56616.03;5061016;28;20206;-64
2022/01/14 00:16:50;;;;;;;23.40;13.10;;;;;;;-142.91;100.00;56616.03;5062103;28;20207;-65
2022/01/14 00:19:17;;;;;;;31.20;13.70;;;;;;;-142.91;100.00;56616.03;5061145;28;20283;-65
2022/01/14 00:21:46;;;;;;;23.30;13.50;;;;;;;-142.91;100.00;56616.03;5061372;28;20261;-65
2022/01/14 00:24:24;;;;;;;27.67;13.87;;;;;;;-142.91;100.00;56616.03;5060851;28;20651;-66
2022/01/14 00:32:27;;;;;;;34.57;14.47;;;;;;;-142.91;100.00;56616.03;5060837;28;20704;-65
2022/01/14 00:34:53;;;;;;;26.00;13.80;;;;;;;-142.91;100.00;56616.03;5061982;28;20676;-65
2022/01/14 00:37:22;;;;;;;30.83;13.60;;;;;;;-142.91;100.00;56616.03;5060875;28;20222;-65
2022/01/14 00:39:48;;;;;;;26.37;13.90;;;;;;;-142.91;100.00;56616.03;5060683;28;20230;-65
2022/01/14 00:42:15;;;;;;;22.93;12.80;;;;;;;-142.91;100.00;56616.03;5059886;28;20234;-65
2022/01/14 00:44:42;;;;;;;22.63;12.50;;;;;;;-142.91;100.00;56616.03;5060197;28;20669;-66
2022/01/14 00:47:09;;;;;;;28.23;13.53;;;;;;;-142.91;100.00;56616.03;5059872;28;20252;-65
2022/01/14 00:49:37;;;;;;;22.90;12.63;;;;;;;-142.91;100.00;56616.03;5060298;28;20364;-65
2022/01/14 00:52:04;;;;;;;25.77;12.10;;;;;;;-142.91;100.00;56616.03;5060072;28;21766;-65
2022/01/14 00:54:32;;;;;;;29.73;13.57;;;;;;;-142.91;100.00;56616.03;5060705;28;20229;-65
2022/01/14 00:57:14;;;;;;;27.03;14.70;;;;;;;-142.91;100.00;56616.03;5060578;28;20572;-65
2022/01/14 00:59:40;;;;;;;28.67;13.83;;;;;;;-142.91;100.00;56616.03;5061182;28;20206;-65
2022/01/14 01:02:07;;;;;;;25.97;12.73;;;;;;;-142.91;100.00;56616.03;5059927;28;20284;-65
2022/01/14 01:04:39;;;;;;;29.93;13.10;;;;;;;-142.91;100.00;56616.03;5060384;28;20297;-65
2022/01/14 01:07:08;;;;;;;25.37;12.67;;;;;;;-142.91;100.00;56616.03;5060634;28;20240;-65
2022/01/14 01:09:37;;;;;;;27.97;13.63;;;;;;;-142.91;100.00;56616.03;5060648;28;20198;-65
2022/01/14 01:12:14;;;;;;;22.60;11.83;;;;;;;-142.91;100.00;56616.03;5060183;28;20256;-65
2022/01/14 01:14:46;;;;;;;30.33;13.07;;;;;;;-142.91;100.00;56616.03;5060078;28;20209;-65
2022/01/14 01:17:13;;;;;;;29.87;13.10;;;;;;;-142.91;100.00;56616.03;5059925;28;20607;-65
2022/01/14 01:19:41;;;;;;;23.93;12.80;;;;;;;-142.91;100.00;56616.03;5060263;28;20237;-65
2022/01/14 01:22:08;;;;;;;22.23;12.10;;;;;;;-142.91;100.00;56616.03;5059775;28;20284;-65
2022/01/14 01:24:36;;;;;;;28.57;13.70;;;;;;;-142.91;100.00;56616.03;5060022;28;20292;-65
2022/01/14 01:27:06;;;;;;;22.47;12.57;;;;;;;-142.91;100.00;56616.03;5059615;28;20293;-65
2022/01/14 01:29:48;;;;;;;25.77;12.40;;;;;;;-142.91;100.00;56616.03;5060398;28;20345;-65
2022/01/14 01:32:15;;;;;;;22.40;12.63;;;;;;;-142.91;100.00;56616.03;5060134;28;20218;-65
2022/01/14 01:34:43;;;;;;;27.33;12.97;;;;;;;-142.91;100.00;56616.03;5059713;28;20234;-66
2022/01/14 01:37:10;;;;;;;27.40;11.73;;;;;;;-142.91;100.00;56616.03;5060185;28;20926;-66
2022/01/14 01:39:39;;;;;;;23.23;11.17;;;;;;;-142.91;100.00;56616.03;5059600;28;20249;-66
2022/01/14 01:42:08;;;;;;;22.47;11.03;;;;;;;-142.91;100.00;56616.03;5059466;28;20582;-66
2022/01/14 01:44:36;;;;;;;21.20;11.53;;;;;;;-142.91;100.00;56616.03;5060518;28;20241;-65
2022/01/14 01:47:04;;;;;;;24.97;12.40;;;;;;;-142.91;100.00;56616.03;5059730;28;20255;-65
2022/01/14 01:49:33;;;;;;;26.07;12.37;;;;;;;-142.91;100.00;56616.03;5060021;28;20283;-66
2022/01/14 01:52:00;;;;;;;31.97;11.93;;;;;;;-142.91;100.00;56616.03;5059972;28;20772;-65
2022/01/14 01:54:28;;;;;;;32.87;13.67;;;;;;;-142.91;100.00;56616.03;5060421;28;20290;-65
2022/01/14 01:56:58;;;;;;;23.23;11.77;;;;;;;-142.91;100.00;56616.03;5062993;28;20234;-66
2022/01/14 01:59:26;;;;;;;21.40;11.90;;;;;;;-142.91;100.00;56616.03;5065962;28;20243;-66
2022/01/14 02:01:53;;;;;;;24.63;11.73;;;;;;;-142.91;100.00;56616.03;5066137;28;20783;-66
2022/01/14 02:04:20;;;;;;;22.97;12.57;;;;;;;-142.91;100.00;56616.03;5067370;28;20233;-65
2022/01/14 02:06:48;;;;;;;23.17;12.33;;;;;;;-142.91;100.00;56616.03;5066026;28;20322;-65
2022/01/14 02:09:14;;;;;;;23.47;12.60;;;;;;;-142.91;100.00;56616.03;5066192;28;20210;-65
2022/01/14 02:11:41;;;;;;;24.17;13.67;;;;;;;-142.91;100.00;56616.03;5066218;28;20317;-65
2022/01/14 02:14:26;;;;;;;24.03;12.67;;;;;;;-142.91;100.00;56616.03;5065928;28;20255;-65
2022/01/14 02:17:26;;;;;;;30.00;13.07;;;;;;;-142.91;100.00;56616.03;5066158;28;20285;-66
2022/01/14 02:22:10;;;;;;;24.27;11.97;;;;;;;-142.91;100.00;56616.03;5065521;28;20201;-66
2022/01/14 02:22:49;;;;;;;27.50;12.33;;;;;;;-142.91;100.00;56616.03;5065689;28;20233;-66
2022/01/14 02:25:16;;;;;;;20.77;11.47;;;;;;;-142.91;100.00;56616.03;5065945;28;20278;-66
2022/01/14 02:27:44;;;;;;;22.43;12.53;;;;;;;-142.91;100.00;56616.03;5066180;28;20203;-66
2022/01/14 02:30:11;;;;;;;27.43;12.00;;;;;;;-142.91;100.00;56616.03;5066376;28;20226;-66
2022/01/14 02:32:39;;;;;;;25.60;12.33;;;;;;;-142.91;100.00;56616.03;5066070;28;20207;-66
2022/01/14 02:35:08;;;;;;;24.90;12.60;;;;;;;-142.91;100.00;56616.03;5065920;28;21145;-65
2022/01/14 02:37:36;;;;;;;22.90;12.27;;;;;;;-142.91;100.00;56616.03;5065977;28;20207;-65
2022/01/14 02:40:04;;;;;;;22.77;12.13;;;;;;;-142.91;100.00;56616.03;5065581;28;20306;-66
2022/01/14 02:42:31;;;;;;;31.07;12.40;;;;;;;-142.91;100.00;56616.03;5066119;28;20862;-65
2022/01/14 02:45:02;;;;;;;28.53;11.33;;;;;;;-142.91;100.00;56616.03;5066160;28;20272;-65
2022/01/14 02:47:29;;;;;;;27.80;12.13;;;;;;;-142.91;100.00;56616.03;5066186;28;20293;-66
2022/01/14 02:49:56;;;;;;;24.87;11.27;;;;;;;-142.91;100.00;56616.03;5065807;28;20283;-66
2022/01/14 02:52:40;;;;;;;23.77;11.70;;;;;;;-142.91;100.00;56616.03;5066179;28;20279;-65
2022/01/14 02:55:16;;;;;;;24.17;12.50;;;;;;;-142.91;100.00;56616.03;5065889;28;20215;-65
2022/01/14 02:57:44;;;;;;;23.87;12.13;;;;;;;-142.91;100.00;56616.03;5065801;28;20295;-65
2022/01/14 03:00:13;;;;;;;29.77;12.60;;;;;;;-142.91;100.00;56616.03;5065768;28;20229;-65
2022/01/14 03:02:44;;;;;;;21.80;11.77;;;;;;;-142.91;100.00;56616.03;5063660;28;20233;-65
2022/01/14 03:05:11;;;;;;;27.83;12.63;;;;;;;-142.91;100.00;56616.03;5066444;28;20226;-65
2022/01/14 03:07:41;;;;;;;29.30;12.67;;;;;;;-142.91;100.00;56616.03;5064444;28;20469;-65
2022/01/14 03:10:10;;;;;;;34.63;13.43;;;;;;;-142.91;100.00;56616.03;5062411;28;20234;-65
2022/01/14 03:12:37;;;;;;;27.73;12.77;;;;;;;-142.91;100.00;56616.03;5063136;28;20735;-66
2022/01/14 03:15:05;;;;;;;33.07;14.33;;;;;;;-142.91;100.00;56616.03;5063642;28;20316;-66
2022/01/14 03:17:32;;;;;;;23.07;12.07;;;;;;;-142.91;100.00;56616.03;5062272;28;20199;-66
2022/01/14 03:20:01;;;;;;;26.70;12.60;;;;;;;-142.91;100.00;56616.03;5062415;28;20203;-66
2022/01/14 03:22:32;;;;;;;33.20;12.93;;;;;;;-142.91;100.00;56616.03;5061792;28;20874;-65
2022/01/14 03:27:45;;;;;;;31.07;13.33;;;;;;;-142.91;100.00;56616.03;5062238;28;20197;-65
2022/01/14 03:30:13;;;;;;;24.00;11.17;;;;;;;-142.91;100.00;56616.03;5062162;28;20218;-65
2022/01/14 03:32:40;;;;;;;25.27;12.30;;;;;;;-142.91;100.00;56616.03;5061784;28;20208;-66
2022/01/14 03:35:09;;;;;;;20.90;11.67;;;;;;;-142.91;100.00;56616.03;5061757;28;20970;-65
2022/01/14 03:37:36;;;;;;;23.47;10.97;;;;;;;-142.91;100.00;56616.03;5061706;28;20653;-65
2022/01/14 03:40:07;;;;;;;31.90;12.70;;;;;;;-142.91;100.00;56616.03;5062250;28;20268;-66
2022/01/14 03:42:33;;;;;;;25.53;11.70;;;;;;;-142.91;100.00;56616.03;5061484;28;20205;-65
2022/01/14 03:45:00;;;;;;;20.90;10.70;;;;;;;-142.91;100.00;56616.03;5061942;28;20311;-66
2022/01/14 03:47:27;;;;;;;30.93;11.40;;;;;;;-142.91;100.00;56616.03;5061797;28;20738;-65
2022/01/14 03:49:54;;;;;;;22.23;11.63;;;;;;;-142.91;100.00;56616.03;5061974;28;20307;-66
2022/01/14 03:52:20;;;;;;;22.33;12.07;;;;;;;-142.91;100.00;56616.03;5061861;28;20293;-65
2022/01/14 03:54:48;;;;;;;37.10;13.10;;;;;;;-142.91;100.00;56616.03;5061733;28;20642;-65
2022/01/14 03:57:16;;;;;;;26.43;12.80;;;;;;;-142.91;100.00;56616.03;5061833;28;20234;-65
2022/01/14 03:59:43;;;;;;;22.77;12.23;;;;;;;-142.91;100.00;56616.03;5061434;28;20222;-66
2022/01/14 04:02:10;;;;;;;21.13;11.90;;;;;;;-142.91;100.00;56616.03;5061404;28;20304;-65
2022/01/14 04:04:36;;;;;;;28.87;13.27;;;;;;;-142.91;100.00;56616.03;5061490;28;20237;-65
2022/01/14 04:07:03;;;;;;;23.67;12.27;;;;;;;-142.91;100.00;56616.03;5061966;28;20746;-66
2022/01/14 04:09:35;;;;;;;20.80;11.73;;;;;;;-142.91;100.00;56616.03;5061424;28;20296;-66
2022/01/14 04:12:02;;;;;;;24.10;10.97;;;;;;;-142.91;100.00;56616.03;5061760;28;20202;-65
2022/01/14 04:17:18;;;;;;;27.60;13.10;;;;;;;-142.91;100.00;56616.03;5060735;28;20213;-65
2022/01/14 04:19:44;;;;;;;22.07;10.87;;;;;;;-142.91;100.00;56616.03;5061117;28;20198;-66
2022/01/14 04:22:11;;;;;;;26.50;13.10;;;;;;;-142.91;100.00;56616.03;5060817;28;20233;-65
2022/01/14 04:24:38;;;;;;;26.53;12.10;;;;;;;-142.91;100.00;56616.03;5061524;28;20202;-66
2022/01/14 04:27:06;;;;;;;26.17;11.47;;;;;;;-142.91;100.00;56616.03;5061308;28;20203;-66
2022/01/14 04:29:34;;;;;;;23.60;11.97;;;;;;;-142.91;100.00;56616.03;5061324;28;20257;-66
2022/01/14 04:32:01;;;;;;;20.97;10.77;;;;;;;-142.91;100.00;56616.03;5063829;28;20255;-66
2022/01/14 04:34:27;;;;;;;27.87;11.93;;;;;;;-142.91;100.00;56616.03;5054091;28;20230;-66
2022/01/14 04:36:54;;;;;;;25.03;12.23;;;;;;;-142.91;100.00;56616.03;5061274;28;20279;-66
2022/01/14 04:39:21;;;;;;;21.60;11.63;;;;;;;-142.91;100.00;56616.03;5061064;28;20323;-66
2022/01/14 04:41:47;;;;;;;23.03;11.17;;;;;;;-142.91;100.00;56616.03;5061113;28;20226;-66
2022/01/14 04:44:14;;;;;;;26.80;11.67;;;;;;;-142.91;100.00;56616.03;5060098;28;20319;-66
2022/01/14 04:47:14;;;;;;;23.77;12.87;;;;;;;-142.91;100.00;56616.03;5059710;28;20230;-65
2022/01/14 04:49:40;;;;;;;18.30;10.63;;;;;;;-142.91;100.00;56616.03;5060807;28;20205;-65
2022/01/14 04:52:07;;;;;;;23.50;11.30;;;;;;;-142.91;100.00;56616.03;5061033;28;20226;-66
2022/01/14 04:54:35;;;;;;;23.83;12.30;;;;;;;-142.91;100.00;56616.03;5061699;28;20202;-65
2022/01/14 04:57:02;;;;;;;23.73;12.53;;;;;;;-142.91;100.00;56616.03;5060093;28;20234;-66
2022/01/14 04:59:29;;;;;;;26.13;12.97;;;;;;;-142.91;100.00;56616.03;5060847;28;20206;-67
2022/01/14 05:01:58;;;;;;;25.93;13.33;;;;;;;-142.91;100.00;56616.03;5060674;28;20226;-65
2022/01/14 05:04:25;;;;;;;22.37;11.67;;;;;;;-142.91;100.00;56616.03;5061099;28;20202;-65
2022/01/14 05:06:57;;;;;;;22.77;10.97;;;;;;;-142.91;100.00;56616.03;5061530;28;20617;-67
2022/01/14 05:09:31;;;;;;;19.97;11.50;;;;;;;-142.91;100.00;56616.03;5059734;28;20857;-65
2022/01/14 05:12:06;;;;;;;21.87;10.73;;;;;;;-142.91;100.00;56616.03;5061573;28;20202;-65
2022/01/14 05:14:33;;;;;;;26.97;13.23;;;;;;;-142.91;100.00;56616.03;5060743;28;20299;-64
2022/01/14 05:17:01;;;;;;;30.43;14.40;;;;;;;-142.91;100.00;56616.03;5063290;28;20228;-65
2022/01/14 05:19:28;;;;;;;22.27;10.57;;;;;;;-142.91;100.00;56616.03;5060433;28;20203;-65
2022/01/14 05:21:55;;;;;;;28.97;13.07;;;;;;;-142.91;100.00;56616.03;5060844;28;20552;-66
2022/01/14 05:24:23;;;;;;;26.10;12.83;;;;;;;-142.91;100.00;56616.03;5060750;28;20349;-65
2022/01/14 05:26:51;;;;;;;22.47;11.87;;;;;;;-142.91;100.00;56616.03;5060751;28;20650;-65
2022/01/14 05:29:18;;;;;;;18.43;11.33;;;;;;;-142.91;100.00;56616.03;5059856;28;20242;-66
2022/01/14 05:31:46;;;;;;;13.30;9.57;;;;;;;-142.91;100.00;56616.03;5058989;28;20198;-66
2022/01/14 05:34:15;;;;;;;22.30;11.13;;;;;;;-142.91;100.00;56616.03;5060485;28;20263;-66
2022/01/14 05:36:42;;;;;;;22.80;9.93;;;;;;;-142.91;100.00;56616.03;5060665;28;20551;-66
2022/01/14 05:39:10;;;;;;;20.23;10.80;;;;;;;-142.91;100.00;56616.03;5061361;28;20732;-65
2022/01/14 05:41:40;;;;;;;16.07;10.50;;;;;;;-142.91;100.00;56616.03;5059153;28;20678;-66
2022/01/14 05:44:07;;;;;;;21.57;10.17;;;;;;;-142.91;100.00;56616.03;5059532;28;20194;-65
2022/01/14 05:46:34;;;;;;;17.10;10.23;;;;;;;-142.91;100.00;56616.03;5059228;28;20262;-66
2022/01/14 05:49:00;;;;;;;19.93;10.33;;;;;;;-142.91;100.00;56616.03;5059688;28;20233;-66
2022/01/14 05:51:29;;;;;;;22.43;11.37;;;;;;;-142.91;100.00;56616.03;5061039;28;20234;-65
2022/01/14 05:53:57;;;;;;;19.27;10.00;;;;;;;-142.91;100.00;56616.03;5058942;28;20284;-65
2022/01/14 05:56:23;;;;;;;18.27;10.60;;;;;;;-142.91;100.00;56616.03;5059642;28;20279;-65
2022/01/14 05:58:50;;;;;;;21.80;10.93;;;;;;;-142.91;100.00;56616.03;5060391;28;20291;-65
2022/01/14 06:01:17;;;;;;;26.20;12.40;;;;;;;-142.91;100.00;56616.03;5059476;28;20246;-65
2022/01/14 06:03:44;;;;;;;30.67;10.23;;;;;;;-142.91;100.00;56616.03;5060131;28;20230;-65
2022/01/14 06:06:10;;;;;;;27.50;11.47;;;;;;;-142.91;100.00;56616.03;5060879;28;20261;-65
2022/01/14 06:08:39;;;;;;;25.47;12.47;;;;;;;-142.91;100.00;56616.03;5059861;28;20271;-65
2022/01/14 06:11:05;;;;;;;21.30;11.53;;;;;;;-142.91;100.00;56616.03;5060064;28;20287;-65
2022/01/14 06:13:32;;;;;;;23.53;11.73;;;;;;;-142.91;100.00;56616.03;5059369;28;20279;-65
2022/01/14 06:15:59;;;;;;;21.03;10.87;;;;;;;-142.91;100.00;56616.03;5060567;28;20286;-65
2022/01/14 06:18:25;;;;;;;24.80;12.10;;;;;;;-142.91;100.00;56616.03;5060126;28;20210;-66
2022/01/14 06:20:52;;;;;;;19.53;11.00;;;;;;;-142.91;100.00;56616.03;5059774;28;20310;-66
2022/01/14 06:23:19;;;;;;;18.30;10.27;;;;;;;-142.91;100.00;56616.03;5059316;28;21319;-66
2022/01/14 06:25:47;;;;;;;21.13;11.33;;;;;;;-142.91;100.00;56616.03;5058724;28;20812;-65
2022/01/14 06:28:13;;;;;;;20.60;11.60;;;;;;;-142.91;100.00;56616.03;5059342;28;20263;-65
2022/01/14 06:30:40;;;;;;;22.40;11.20;;;;;;;-142.91;100.00;56616.03;5060092;28;20237;-65
2022/01/14 06:33:07;;;;;;;18.37;10.87;;;;;;;-142.91;100.00;56616.03;5061006;28;20612;-65
2022/01/14 06:35:34;;;;;;;17.57;10.50;;;;;;;-142.91;100.00;56616.03;5059135;28;20299;-65
2022/01/14 06:38:01;;;;;;;22.20;11.53;;;;;;;-142.91;100.00;56616.03;5060198;28;20263;-65
2022/01/14 06:40:28;;;;;;;23.53;10.90;;;;;;;-142.91;100.00;56616.03;5058995;28;20284;-66
2022/01/14 06:42:56;;;;;;;27.83;9.93;;;;;;;-142.91;100.00;56616.03;5059728;28;20230;-65
2022/01/14 06:45:24;;;;;;;16.83;9.77;;;;;;;-142.91;100.00;56616.03;5063910;28;20295;-66
2022/01/14 06:47:51;;;;;;;23.20;10.97;;;;;;;-142.91;100.00;56616.03;5062996;28;20280;-66
2022/01/14 06:50:19;;;;;;;21.37;11.67;;;;;;;-142.91;100.00;56616.03;5062240;28;20226;-66
2022/01/14 06:52:45;;;;;;;19.27;10.13;;;;;;;-142.91;100.00;56616.03;5064123;28;20754;-67
2022/01/14 06:55:13;;;;;;;22.87;12.20;;;;;;;-142.91;100.00;56616.03;5063113;28;20206;-64
2022/01/14 06:57:40;;;;;;;21.13;11.17;;;;;;;-142.91;100.00;56616.03;5062429;28;20230;-66
2022/01/14 07:00:11;;;;;;;17.97;9.47;;;;;;;-142.91;100.00;56616.03;5063115;28;20202;-66
2022/01/14 07:02:39;;;;;;;22.83;10.30;;;;;;;-142.91;100.00;56616.03;5061998;28;20708;-66
2022/01/14 07:05:07;;;;;;;22.70;11.30;;;;;;;-142.91;100.00;56616.03;5062475;28;20272;-65
2022/01/14 07:07:34;;;;;;;18.97;9.57;;;;;;;-142.91;100.00;56616.03;5062699;28;20286;-66
2022/01/14 07:10:01;;;;;;;19.57;10.83;;;;;;;-142.91;100.00;56616.03;5063693;28;20280;-66
2022/01/14 07:12:30;;;;;;;20.63;9.50;;;;;;;-142.91;100.00;56616.03;5064342;28;20199;-66
2022/01/14 07:14:57;;;;;;;17.73;9.57;;;;;;;-142.91;100.00;56616.03;5063817;28;20499;-66
2022/01/14 07:17:26;;;;;;;22.33;9.93;;;;;;;-142.91;100.00;56616.03;5063118;28;20216;-66
2022/01/14 07:19:55;;;;;;;19.93;9.33;;;;;;;-142.91;100.00;56616.03;5062057;28;20291;-66
2022/01/14 07:22:22;;;;;;;20.53;11.00;;;;;;;-142.91;100.00;56616.03;5062082;28;20674;-66
2022/01/14 07:24:50;;;;;;;15.63;9.83;;;;;;;-142.91;100.00;56616.03;5062342;28;20677;-65
2022/01/14 07:27:17;;;;;;;23.50;10.47;;;;;;;-142.91;100.00;56616.03;5062102;28;20287;-66
2022/01/14 07:29:44;;;;;;;20.40;10.50;;;;;;;-142.91;100.00;56616.03;5062805;28;20849;-66
2022/01/14 07:32:11;;;;;;;19.30;10.63;;;;;;;-142.91;100.00;56616.03;5063404;28;20275;-66
2022/01/14 07:34:39;;;;;;;25.97;12.77;;;;;;;-142.91;100.00;56616.03;5061517;28;20246;-65
2022/01/14 07:37:06;;;;;;;23.30;12.83;;;;;;;-142.91;100.00;56616.03;5062439;28;20327;-65
2022/01/14 07:39:32;;;;;;;35.47;12.67;;;;;;;-142.91;100.00;56616.03;5062514;28;20258;-65
2022/01/14 07:41:59;;;;;;;30.30;14.83;;;;;;;-142.91;100.00;56616.03;5061464;28;20276;-66
2022/01/14 07:44:26;;;;;;;24.83;12.53;;;;;;;-142.91;100.00;56616.03;5062552;28;20198;-66
2022/01/14 07:46:53;;;;;;;29.60;13.10;;;;;;;-142.91;100.00;56616.03;5061710;28;20228;-65
2022/01/14 07:49:19;;;;;;;23.13;12.67;;;;;;;-142.91;100.00;56616.03;5062305;28;20222;-66
2022/01/14 07:51:47;;;;;;;30.60;11.97;;;;;;;-142.91;100.00;56616.03;5062164;28;20698;-65
2022/01/14 07:54:14;;;;;;;32.83;14.03;;;;;;;-142.91;100.00;56616.03;5062266;28;20210;-65
2022/01/14 07:56:45;;;;;;;23.63;11.33;;;;;;;-142.91;100.00;56616.03;5063345;28;20229;-65
2022/01/14 07:59:13;;;;;;;22.33;11.60;;;;;;;-142.91;100.00;56616.03;5061128;28;21136;-66
2022/01/14 08:01:40;;;;;;;23.07;12.80;;;;;;;-142.91;100.00;56616.03;5061841;28;20205;-65
2022/01/14 08:04:07;;;;;;;26.97;13.37;;;;;;;-142.91;100.00;56616.03;5062669;28;20206;-67
2022/01/14 08:06:38;;;;;;;24.50;13.43;;;;;;;-142.91;100.00;56616.03;5061164;28;20326;-65
2022/01/14 08:09:06;;;;;;;22.97;13.07;;;;;;;-142.91;100.00;56616.03;5061467;28;20209;-65
2022/01/14 08:11:33;;;;;;;36.83;13.93;;;;;;;-142.91;100.00;56616.03;5061375;28;20275;-65
2022/01/14 08:14:00;;;;;;;31.43;13.83;;;;;;;-142.91;100.00;56616.03;5061103;28;20218;-66
2022/01/14 08:16:26;;;;;;;34.37;15.30;;;;;;;-142.91;100.00;56616.03;5061242;28;20256;-65
2022/01/14 08:18:53;;;;;;;31.90;14.97;;;;;;;-142.91;100.00;56616.03;5060571;28;20299;-66
2022/01/14 08:21:20;;;;;;;24.77;13.67;;;;;;;-142.91;100.00;56616.03;5060952;28;20267;-66
2022/01/14 08:23:46;;;;;;;26.00;14.20;;;;;;;-142.91;100.00;56616.03;5060711;28;20752;-65
2022/01/14 08:26:14;;;;;;;24.50;13.73;;;;;;;-142.91;100.00;56616.03;5061512;28;20704;-65
2022/01/14 08:28:42;;;;;;;24.37;13.17;;;;;;;-142.91;100.00;56616.03;5061013;28;20643;-65
2022/01/14 08:31:08;;;;;;;24.60;11.77;;;;;;;-142.91;100.00;56616.03;5061738;28;20637;-66
2022/01/14 08:33:35;;;;;;;25.43;11.43;;;;;;;-142.91;100.00;56616.03;5061406;28;20202;-66
2022/01/14 08:36:02;;;;;;;20.27;11.50;;;;;;;-142.91;100.00;56616.03;5061367;28;20230;-65
2022/01/14 08:38:29;;;;;;;24.80;11.47;;;;;;;-142.91;100.00;56616.03;5061417;28;20225;-65
2022/01/14 08:40:56;;;;;;;23.90;11.73;;;;;;;-142.91;100.00;56616.03;5060799;28;20284;-65
2022/01/14 08:43:25;;;;;;;18.33;11.37;;;;;;;-142.91;100.00;56616.03;5061318;28;20202;-65
2022/01/14 08:45:51;;;;;;;19.80;10.87;;;;;;;-142.91;100.00;56616.03;5060503;28;20230;-66
2022/01/14 08:48:18;;;;;;;23.07;10.57;;;;;;;-142.91;100.00;56616.03;5062311;28;20325;-65
2022/01/14 08:50:46;;;;;;;22.03;10.60;;;;;;;-142.91;100.00;56616.03;5060793;28;20230;-68
2022/01/14 08:53:14;;;;;;;21.33;11.07;;;;;;;-142.91;100.00;56616.03;5060186;28;20653;-65
2022/01/14 08:55:41;;;;;;;17.37;10.13;;;;;;;-142.91;100.00;56616.03;5059846;28;20582;-65
2022/01/14 08:58:09;;;;;;;22.10;11.10;;;;;;;-142.91;100.00;56616.03;5060046;28;20697;-65
2022/01/14 09:00:38;;;;;;;20.97;10.70;;;;;;;-142.91;100.00;56616.03;5060235;28;20989;-64
2022/01/14 09:03:05;;;;;;;18.57;10.73;;;;;;;-142.91;100.00;56616.03;5058203;28;20198;-66
2022/01/14 09:05:32;;;;;;;16.70;10.17;;;;;;;-142.91;100.00;56616.03;5059002;28;20206;-65
2022/01/14 09:08:02;;;;;;;18.20;9.97;;;;;;;-142.91;100.00;56616.03;5060355;28;20233;-65
2022/01/14 09:10:28;;;;;;;17.63;10.07;;;;;;;-142.91;100.00;56616.03;5060662;28;20207;-66
2022/01/14 09:12:55;;;;;;;12.80;9.13;;;;;;;-142.91;100.00;56616.03;5060261;28;20756;-66
2022/01/14 09:15:22;;;;;;;14.07;8.00;;;;;;;-142.91;100.00;56616.03;5060502;28;20260;-65
2022/01/14 09:17:50;;;;;;;9.87;5.57;;;;;;;-142.91;100.00;56616.03;5057939;28;20594;-65
2022/01/14 09:20:18;;;;;;;11.83;6.70;;;;;;;-142.91;100.00;56616.03;5058069;28;20256;-65
2022/01/14 09:22:49;;;;;;;9.20;6.40;;;;;;;-142.91;100.00;56616.03;5058598;28;21071;-64
2022/01/14 09:25:17;;;;;;;7.03;5.03;;;;;;;-142.91;100.00;56616.03;5059292;28;20206;-65
2022/01/14 09:27:43;;;;;;;9.93;6.57;;;;;;;-142.91;100.00;56616.03;5058511;28;20737;-65
2022/01/14 09:30:12;;;;;;;6.43;5.80;;;;;;;-142.91;100.00;56616.03;5058157;28;20593;-66
2022/01/14 09:32:38;;;;;;;12.40;6.73;;;;;;;-142.91;100.00;56616.03;5060709;28;20291;-66
2022/01/14 09:35:08;;;;;;;7.87;6.13;;;;;;;-142.91;100.00;56616.03;5059586;28;20198;-66
2022/01/14 09:37:35;;;;;;;9.03;6.23;;;;;;;-142.91;100.00;56616.03;5059866;28;20199;-65
2022/01/14 09:40:02;;;;;;;6.10;5.37;;;;;;;-142.91;100.00;56616.03;5060270;28;20257;-65
2022/01/14 09:42:30;;;;;;;8.77;6.33;;;;;;;-142.91;100.00;56616.03;5061229;28;20198;-65
2022/01/14 09:44:57;;;;;;;9.33;5.53;;;;;;;-142.91;100.00;56616.03;5060293;28;20206;-65
2022/01/14 09:47:24;;;;;;;8.57;6.27;;;;;;;-142.91;100.00;56616.03;5059632;28;20233;-65
2022/01/14 09:49:51;;;;;;;9.57;5.80;;;;;;;-142.91;100.00;56616.03;5060801;28;20269;-64
2022/01/14 09:52:19;;;;;;;13.20;7.30;;;;;;;-142.91;100.00;56616.03;5059201;28;20665;-64
2022/01/14 09:54:48;;;;;;;10.40;6.60;;;;;;;-142.91;100.00;56616.03;5059173;28;20644;-64
2022/01/14 09:57:16;;;;;;;10.87;7.20;;;;;;;-142.91;100.00;56616.03;5060150;28;20194;-65
2022/01/14 09:59:42;;;;;;;13.17;8.23;;;;;;;-142.91;100.00;56616.03;5059429;28;20744;-65
2022/01/14 10:02:09;;;;;;;11.77;6.80;;;;;;;-142.91;100.00;56616.03;5059980;28;20225;-64
2022/01/14 10:04:38;;;;;;;9.87;6.87;;;;;;;-142.91;100.00;56616.03;5060649;28;20198;-65
2022/01/14 10:07:05;;;;;;;11.47;6.50;;;;;;;-142.91;100.00;56616.03;5060470;28;20238;-65
2022/01/14 10:09:36;;;;;;;19.23;7.63;;;;;;;-142.91;100.00;56616.03;5060844;28;20206;-65
2022/01/14 10:12:07;;;;;;;10.23;7.00;;;;;;;-142.91;100.00;56616.03;5060506;28;20287;-65
2022/01/14 10:14:35;;;;;;;17.97;8.63;;;;;;;-142.91;100.00;56616.03;5059507;28;21040;-65
2022/01/14 10:17:04;;;;;;;15.23;6.67;;;;;;;-142.91;100.00;56616.03;5059467;28;20234;-65
2022/01/14 10:19:35;;;;;;;24.80;7.00;;;;;;;-142.91;100.00;56616.03;5063046;28;20261;-65
2022/01/14 10:22:02;;;;;;;15.70;8.20;;;;;;;-142.91;100.00;56616.03;5064980;28;20342;-64
2022/01/14 10:24:31;;;;;;;17.13;8.73;;;;;;;-142.91;100.00;56616.03;5063234;28;20237;-66
2022/01/14 10:27:03;;;;;;;17.40;7.43;;;;;;;-142.91;100.00;56616.03;5063678;28;20230;-65
2022/01/14 10:29:33;;;;;;;12.77;6.80;;;;;;;-142.91;100.00;56616.03;5063031;28;20666;-65
2022/01/14 10:32:01;;;;;;;14.03;7.00;;;;;;;-142.91;100.00;56616.03;5062703;28;20230;-65
2022/01/14 10:34:29;;;;;;;18.60;6.60;;;;;;;-142.91;100.00;56616.03;5062723;28;20194;-64
2022/01/14 10:37:11;;;;;;;15.40;6.67;;;;;;;-142.91;100.00;56616.03;5064496;28;20205;-64
2022/01/14 10:39:44;;;;;;;11.77;7.00;;;;;;;-142.91;100.00;56616.03;5063742;28;20221;-64
2022/01/14 10:42:24;;;;;;;8.93;6.17;;;;;;;-142.91;100.00;56616.03;5063038;28;20301;-66
2022/01/14 10:44:51;;;;;;;8.47;6.63;;;;;;;-142.91;100.00;56616.03;5062844;28;20285;-66
2022/01/14 10:47:20;;;;;;;8.57;5.63;;;;;;;-142.91;100.00;56616.03;5063279;28;20233;-64
2022/01/14 10:49:49;;;;;;;7.20;4.67;;;;;;;-142.91;100.00;56616.03;5063069;28;20202;-64
2022/01/14 10:52:19;;;;;;;5.47;4.83;;;;;;;-142.91;100.00;56616.03;5063830;28;20210;-64
2022/01/14 10:54:47;;;;;;;9.40;5.60;;;;;;;-142.91;100.00;56616.03;5062938;28;20199;-64
2022/01/14 10:57:17;;;;;;;6.43;5.33;;;;;;;-142.91;100.00;56616.03;5062683;28;20210;-64
2022/01/14 10:59:47;;;;;;;6.10;4.33;;;;;;;-142.91;100.00;56616.03;5063103;28;20222;-65
2022/01/14 11:02:33;;;;;;;7.50;4.20;;;;;;;-142.91;100.00;56616.03;5062612;28;20242;-64
2022/01/14 11:05:05;;;;;;;6.90;5.23;;;;;;;-142.91;100.00;56616.03;5062990;28;21078;-64
2022/01/14 11:07:32;;;;;;;5.93;5.27;;;;;;;-142.91;100.00;56616.03;5063334;28;20294;-64
2022/01/14 11:09:59;;;;;;;5.77;4.73;;;;;;;-142.91;100.00;56616.03;5062647;28;21080;-64
2022/01/14 11:12:26;;;;;;;5.97;5.10;;;;;;;-142.91;100.00;56616.03;5063386;28;20213;-64
2022/01/14 11:14:54;;;;;;;5.67;5.00;;;;;;;-142.91;100.00;56616.03;5061699;28;20211;-64